sensor_id;sensor_type;location;lat;lon;timestamp;temperature;humidity
50548;DHT22;38013;48.810;8.818;2022-08-24T00:01:18;20.10;52.00
50548;DHT22;38013;48.810;8.818;2022-08-24T00:03:46;20.10;52.10
50548;DHT22;38013;48.810;8.818;2022-08-24T00:06:15;20.10;52.20
50548;DHT22;38013;48.810;8.818;2022-08-24T00:08:44;20.10;52.30
50548;DHT22;38013;48.810;8.818;2022-08-24T00:11:11;20.10;52.10
50548;DHT22;38013;48.810;8.818;2022-08-24T00:13:37;20.00;52.30
50548;DHT22;38013;48.810;8.818;2022-08-24T00:16:05;20.00;52.20
50548;DHT22;38013;48.810;8.818;2022-08-24T00:18:31;20.00;53.00
50548;DHT22;38013;48.810;8.818;2022-08-24T00:20:58;20.00;52.40
50548;DHT22;38013;48.810;8.818;2022-08-24T00:23:24;19.90;52.60
50548;DHT22;38013;48.810;8.818;2022-08-24T00:25:50;19.90;52.70
50548;DHT22;38013;48.810;8.818;2022-08-24T00:28:16;19.90;52.70
50548;DHT22;38013;48.810;8.818;2022-08-24T00:30:42;19.90;52.90
50548;DHT22;38013;48.810;8.818;2022-08-24T00:33:08;19.90;52.90
50548;DHT22;38013;48.810;8.818;2022-08-24T00:35:34;19.80;52.70
50548;DHT22;38013;48.810;8.818;2022-08-24T00:38:00;19.80;52.80
50548;DHT22;38013;48.810;8.818;2022-08-24T00:40:30;19.80;53.00
50548;DHT22;38013;48.810;8.818;2022-08-24T00:42:59;19.80;53.30
50548;DHT22;38013;48.810;8.818;2022-08-24T00:45:30;19.80;53.30
50548;DHT22;38013;48.810;8.818;2022-08-24T00:48:03;19.80;53.80
50548;DHT22;38013;48.810;8.818;2022-08-24T00:50:38;19.70;54.20
50548;DHT22;38013;48.810;8.818;2022-08-24T00:53:12;19.70;54.40
50548;DHT22;38013;48.810;8.818;2022-08-24T00:55:48;19.60;54.20
50548;DHT22;38013;48.810;8.818;2022-08-24T00:58:24;19.60;54.30
50548;DHT22;38013;48.810;8.818;2022-08-24T01:00:59;19.50;54.20
50548;DHT22;38013;48.810;8.818;2022-08-24T01:03:28;19.50;54.30
50548;DHT22;38013;48.810;8.818;2022-08-24T01:05:55;19.50;53.90
50548;DHT22;38013;48.810;8.818;2022-08-24T01:08:21;19.40;54.00
50548;DHT22;38013;48.810;8.818;2022-08-24T01:11:17;19.30;53.90
50548;DHT22;38013;48.810;8.818;2022-08-24T01:13:47;19.30;54.80
50548;DHT22;38013;48.810;8.818;2022-08-24T01:16:15;19.20;53.90
50548;DHT22;38013;48.810;8.818;2022-08-24T01:22:04;19.10;55.10
50548;DHT22;38013;48.810;8.818;2022-08-24T01:24:34;19.10;54.30
50548;DHT22;38013;48.810;8.818;2022-08-24T01:27:00;19.00;54.70
50548;DHT22;38013;48.810;8.818;2022-08-24T01:29:28;18.90;54.70
50548;DHT22;38013;48.810;8.818;2022-08-24T01:31:56;18.90;54.40
50548;DHT22;38013;48.810;8.818;2022-08-24T01:34:23;18.90;54.80
50548;DHT22;38013;48.810;8.818;2022-08-24T01:36:54;18.90;54.80
50548;DHT22;38013;48.810;8.818;2022-08-24T01:39:25;18.80;55.40
50548;DHT22;38013;48.810;8.818;2022-08-24T01:41:54;18.80;55.30
50548;DHT22;38013;48.810;8.818;2022-08-24T01:44:21;18.70;55.00
50548;DHT22;38013;48.810;8.818;2022-08-24T01:46:50;18.70;55.30
50548;DHT22;38013;48.810;8.818;2022-08-24T01:49:21;18.70;55.50
50548;DHT22;38013;48.810;8.818;2022-08-24T01:51:49;18.70;55.50
50548;DHT22;38013;48.810;8.818;2022-08-24T01:54:16;18.70;55.50
50548;DHT22;38013;48.810;8.818;2022-08-24T01:56:42;18.60;55.50
50548;DHT22;38013;48.810;8.818;2022-08-24T01:59:09;18.70;55.60
50548;DHT22;38013;48.810;8.818;2022-08-24T02:01:39;18.60;55.60
50548;DHT22;38013;48.810;8.818;2022-08-24T02:04:08;18.60;55.90
50548;DHT22;38013;48.810;8.818;2022-08-24T02:06:35;18.60;55.70
50548;DHT22;38013;48.810;8.818;2022-08-24T02:09:05;18.60;55.70
50548;DHT22;38013;48.810;8.818;2022-08-24T02:11:32;18.50;55.80
50548;DHT22;38013;48.810;8.818;2022-08-24T02:13:58;18.50;55.90
50548;DHT22;38013;48.810;8.818;2022-08-24T02:16:25;18.50;55.90
50548;DHT22;38013;48.810;8.818;2022-08-24T02:18:52;18.50;56.00
50548;DHT22;38013;48.810;8.818;2022-08-24T02:21:17;18.50;56.10
50548;DHT22;38013;48.810;8.818;2022-08-24T02:23:45;18.50;56.00
50548;DHT22;38013;48.810;8.818;2022-08-24T02:26:11;18.50;56.10
50548;DHT22;38013;48.810;8.818;2022-08-24T02:28:38;18.50;56.20
50548;DHT22;38013;48.810;8.818;2022-08-24T02:31:06;18.40;56.30
50548;DHT22;38013;48.810;8.818;2022-08-24T02:33:36;18.40;56.40
50548;DHT22;38013;48.810;8.818;2022-08-24T02:36:05;18.40;56.70
50548;DHT22;38013;48.810;8.818;2022-08-24T02:38:33;18.40;56.50
50548;DHT22;38013;48.810;8.818;2022-08-24T02:40:59;18.30;56.40
50548;DHT22;38013;48.810;8.818;2022-08-24T02:43:25;18.30;56.40
50548;DHT22;38013;48.810;8.818;2022-08-24T02:45:52;18.30;56.60
50548;DHT22;38013;48.810;8.818;2022-08-24T02:48:20;18.30;56.70
50548;DHT22;38013;48.810;8.818;2022-08-24T02:50:49;18.20;56.70
50548;DHT22;38013;48.810;8.818;2022-08-24T02:53:17;18.20;56.90
50548;DHT22;38013;48.810;8.818;2022-08-24T02:55:45;18.10;56.80
50548;DHT22;38013;48.810;8.818;2022-08-24T02:58:14;18.10;56.80
50548;DHT22;38013;48.810;8.818;2022-08-24T03:00:45;18.10;56.80
50548;DHT22;38013;48.810;8.818;2022-08-24T03:03:15;18.10;57.00
50548;DHT22;38013;48.810;8.818;2022-08-24T03:05:42;18.10;57.00
50548;DHT22;38013;48.810;8.818;2022-08-24T03:08:08;18.00;57.10
50548;DHT22;38013;48.810;8.818;2022-08-24T03:10:34;18.00;57.20
50548;DHT22;38013;48.810;8.818;2022-08-24T03:13:01;18.00;57.20
50548;DHT22;38013;48.810;8.818;2022-08-24T03:15:28;18.00;57.40
50548;DHT22;38013;48.810;8.818;2022-08-24T03:17:54;18.00;57.80
50548;DHT22;38013;48.810;8.818;2022-08-24T03:20:22;18.00;57.80
50548;DHT22;38013;48.810;8.818;2022-08-24T03:22:49;18.00;57.80
50548;DHT22;38013;48.810;8.818;2022-08-24T03:25:16;17.90;58.00
50548;DHT22;38013;48.810;8.818;2022-08-24T03:27:43;17.80;58.00
50548;DHT22;38013;48.810;8.818;2022-08-24T03:30:11;17.80;58.10
50548;DHT22;38013;48.810;8.818;2022-08-24T03:32:40;17.70;58.20
50548;DHT22;38013;48.810;8.818;2022-08-24T03:35:07;17.70;58.40
50548;DHT22;38013;48.810;8.818;2022-08-24T03:37:34;17.70;58.30
50548;DHT22;38013;48.810;8.818;2022-08-24T03:40:04;17.60;58.40
50548;DHT22;38013;48.810;8.818;2022-08-24T03:42:31;17.60;58.50
50548;DHT22;38013;48.810;8.818;2022-08-24T03:44:58;17.50;58.30
50548;DHT22;38013;48.810;8.818;2022-08-24T03:47:25;17.40;58.50
50548;DHT22;38013;48.810;8.818;2022-08-24T03:49:51;17.40;58.70
50548;DHT22;38013;48.810;8.818;2022-08-24T03:52:18;17.40;58.90
50548;DHT22;38013;48.810;8.818;2022-08-24T03:54:44;17.40;59.00
50548;DHT22;38013;48.810;8.818;2022-08-24T03:57:10;17.40;59.00
50548;DHT22;38013;48.810;8.818;2022-08-24T03:59:36;17.30;59.00
50548;DHT22;38013;48.810;8.818;2022-08-24T04:02:02;17.30;59.20
50548;DHT22;38013;48.810;8.818;2022-08-24T04:04:28;17.30;59.20
50548;DHT22;38013;48.810;8.818;2022-08-24T04:06:55;17.20;59.20
50548;DHT22;38013;48.810;8.818;2022-08-24T04:09:23;17.20;59.30
50548;DHT22;38013;48.810;8.818;2022-08-24T04:11:51;17.20;59.30
50548;DHT22;38013;48.810;8.818;2022-08-24T04:14:18;17.20;59.30
50548;DHT22;38013;48.810;8.818;2022-08-24T04:16:48;17.20;59.50
50548;DHT22;38013;48.810;8.818;2022-08-24T04:19:21;17.10;59.50
50548;DHT22;38013;48.810;8.818;2022-08-24T04:21:47;17.10;59.60
50548;DHT22;38013;48.810;8.818;2022-08-24T04:24:15;17.10;59.70
50548;DHT22;38013;48.810;8.818;2022-08-24T04:26:41;17.10;59.60
50548;DHT22;38013;48.810;8.818;2022-08-24T04:29:10;17.10;59.70
50548;DHT22;38013;48.810;8.818;2022-08-24T04:31:41;17.00;59.90
50548;DHT22;38013;48.810;8.818;2022-08-24T04:34:09;17.00;59.90
50548;DHT22;38013;48.810;8.818;2022-08-24T04:36:38;17.00;59.90
50548;DHT22;38013;48.810;8.818;2022-08-24T04:39:04;17.00;60.00
50548;DHT22;38013;48.810;8.818;2022-08-24T04:41:51;17.00;60.50
50548;DHT22;38013;48.810;8.818;2022-08-24T04:44:19;17.00;60.00
50548;DHT22;38013;48.810;8.818;2022-08-24T04:46:45;17.00;60.10
50548;DHT22;38013;48.810;8.818;2022-08-24T04:49:11;16.90;60.10
50548;DHT22;38013;48.810;8.818;2022-08-24T04:51:37;16.90;60.20
50548;DHT22;38013;48.810;8.818;2022-08-24T04:54:05;16.90;60.40
50548;DHT22;38013;48.810;8.818;2022-08-24T04:56:32;16.90;60.50
50548;DHT22;38013;48.810;8.818;2022-08-24T04:58:59;16.90;60.50
50548;DHT22;38013;48.810;8.818;2022-08-24T05:01:27;17.00;60.60
50548;DHT22;38013;48.810;8.818;2022-08-24T05:03:55;16.90;60.80
50548;DHT22;38013;48.810;8.818;2022-08-24T05:06:23;16.90;60.70
50548;DHT22;38013;48.810;8.818;2022-08-24T05:08:51;16.90;60.90
50548;DHT22;38013;48.810;8.818;2022-08-24T05:11:18;16.90;60.80
50548;DHT22;38013;48.810;8.818;2022-08-24T05:13:45;16.90;60.90
50548;DHT22;38013;48.810;8.818;2022-08-24T05:16:14;17.00;61.20
50548;DHT22;38013;48.810;8.818;2022-08-24T05:18:43;17.00;61.50
50548;DHT22;38013;48.810;8.818;2022-08-24T05:21:12;17.00;61.50
50548;DHT22;38013;48.810;8.818;2022-08-24T05:23:41;17.00;61.60
50548;DHT22;38013;48.810;8.818;2022-08-24T05:26:13;17.00;61.40
50548;DHT22;38013;48.810;8.818;2022-08-24T05:28:40;17.10;61.60
50548;DHT22;38013;48.810;8.818;2022-08-24T05:31:17;17.10;61.50
50548;DHT22;38013;48.810;8.818;2022-08-24T05:33:45;17.20;61.50
50548;DHT22;38013;48.810;8.818;2022-08-24T05:38:43;17.20;61.60
50548;DHT22;38013;48.810;8.818;2022-08-24T05:41:09;17.30;61.40
50548;DHT22;38013;48.810;8.818;2022-08-24T05:43:36;17.30;61.40
50548;DHT22;38013;48.810;8.818;2022-08-24T05:46:02;17.40;61.30
50548;DHT22;38013;48.810;8.818;2022-08-24T05:48:28;17.40;61.20
50548;DHT22;38013;48.810;8.818;2022-08-24T05:51:13;17.50;61.00
50548;DHT22;38013;48.810;8.818;2022-08-24T05:53:49;17.50;60.70
50548;DHT22;38013;48.810;8.818;2022-08-24T05:56:16;17.60;60.70
50548;DHT22;38013;48.810;8.818;2022-08-24T05:58:43;17.60;60.70
50548;DHT22;38013;48.810;8.818;2022-08-24T06:01:16;17.70;60.60
50548;DHT22;38013;48.810;8.818;2022-08-24T06:03:45;17.70;60.80
50548;DHT22;38013;48.810;8.818;2022-08-24T06:06:14;17.80;60.60
50548;DHT22;38013;48.810;8.818;2022-08-24T06:08:43;17.80;60.40
50548;DHT22;38013;48.810;8.818;2022-08-24T06:11:28;17.90;60.50
50548;DHT22;38013;48.810;8.818;2022-08-24T06:14:01;17.90;60.60
50548;DHT22;38013;48.810;8.818;2022-08-24T06:16:34;18.00;60.30
50548;DHT22;38013;48.810;8.818;2022-08-24T06:19:01;18.00;60.20
50548;DHT22;38013;48.810;8.818;2022-08-24T06:21:28;18.20;60.30
50548;DHT22;38013;48.810;8.818;2022-08-24T06:23:55;18.20;60.30
50548;DHT22;38013;48.810;8.818;2022-08-24T06:26:21;18.30;60.20
50548;DHT22;38013;48.810;8.818;2022-08-24T06:29:06;18.40;60.10
50548;DHT22;38013;48.810;8.818;2022-08-24T06:31:41;18.50;60.10
50548;DHT22;38013;48.810;8.818;2022-08-24T06:34:11;18.60;60.10
50548;DHT22;38013;48.810;8.818;2022-08-24T06:36:38;18.70;60.00
50548;DHT22;38013;48.810;8.818;2022-08-24T06:39:05;18.80;59.80
50548;DHT22;38013;48.810;8.818;2022-08-24T06:41:32;18.90;59.70
50548;DHT22;38013;48.810;8.818;2022-08-24T06:43:58;19.00;59.60
50548;DHT22;38013;48.810;8.818;2022-08-24T06:46:40;19.10;59.60
50548;DHT22;38013;48.810;8.818;2022-08-24T06:49:06;19.20;59.50
50548;DHT22;38013;48.810;8.818;2022-08-24T06:51:34;19.30;59.30
50548;DHT22;38013;48.810;8.818;2022-08-24T06:54:00;19.40;59.20
50548;DHT22;38013;48.810;8.818;2022-08-24T06:56:27;19.60;59.00
50548;DHT22;38013;48.810;8.818;2022-08-24T06:58:53;19.70;58.90
50548;DHT22;38013;48.810;8.818;2022-08-24T07:01:21;19.70;58.60
50548;DHT22;38013;48.810;8.818;2022-08-24T07:03:50;19.90;58.60
50548;DHT22;38013;48.810;8.818;2022-08-24T07:06:39;19.90;58.20
50548;DHT22;38013;48.810;8.818;2022-08-24T07:09:06;20.10;58.10
50548;DHT22;38013;48.810;8.818;2022-08-24T07:11:32;20.20;58.10
50548;DHT22;38013;48.810;8.818;2022-08-24T07:13:59;20.30;58.10
50548;DHT22;38013;48.810;8.818;2022-08-24T07:16:25;20.40;58.00
50548;DHT22;38013;48.810;8.818;2022-08-24T07:18:56;20.50;57.60
50548;DHT22;38013;48.810;8.818;2022-08-24T07:21:23;20.60;57.40
50548;DHT22;38013;48.810;8.818;2022-08-24T07:23:54;20.70;57.10
50548;DHT22;38013;48.810;8.818;2022-08-24T07:26:23;20.80;56.80
50548;DHT22;38013;48.810;8.818;2022-08-24T07:28:58;20.90;56.50
50548;DHT22;38013;48.810;8.818;2022-08-24T07:31:35;21.00;56.10
50548;DHT22;38013;48.810;8.818;2022-08-24T07:34:09;21.10;56.10
50548;DHT22;38013;48.810;8.818;2022-08-24T07:36:37;21.30;55.90
50548;DHT22;38013;48.810;8.818;2022-08-24T07:39:05;21.40;55.90
50548;DHT22;38013;48.810;8.818;2022-08-24T07:41:38;21.50;55.60
50548;DHT22;38013;48.810;8.818;2022-08-24T07:44:05;21.60;55.40
50548;DHT22;38013;48.810;8.818;2022-08-24T07:46:31;21.70;55.40
50548;DHT22;38013;48.810;8.818;2022-08-24T07:48:57;21.80;55.00
50548;DHT22;38013;48.810;8.818;2022-08-24T07:51:24;21.90;54.70
50548;DHT22;38013;48.810;8.818;2022-08-24T07:53:49;22.10;54.90
50548;DHT22;38013;48.810;8.818;2022-08-24T07:56:15;22.20;54.70
50548;DHT22;38013;48.810;8.818;2022-08-24T07:58:46;22.30;54.50
50548;DHT22;38013;48.810;8.818;2022-08-24T08:01:12;22.40;54.00
50548;DHT22;38013;48.810;8.818;2022-08-24T08:03:38;22.50;53.90
50548;DHT22;38013;48.810;8.818;2022-08-24T08:06:07;22.70;53.80
50548;DHT22;38013;48.810;8.818;2022-08-24T08:08:35;22.80;53.40
50548;DHT22;38013;48.810;8.818;2022-08-24T08:11:03;22.90;53.40
50548;DHT22;38013;48.810;8.818;2022-08-24T08:13:30;23.10;53.40
50548;DHT22;38013;48.810;8.818;2022-08-24T08:15:57;23.20;53.40
50548;DHT22;38013;48.810;8.818;2022-08-24T08:18:25;23.40;53.20
50548;DHT22;38013;48.810;8.818;2022-08-24T08:20:57;23.50;52.90
50548;DHT22;38013;48.810;8.818;2022-08-24T08:23:23;23.70;52.70
50548;DHT22;38013;48.810;8.818;2022-08-24T08:26:16;23.80;52.50
50548;DHT22;38013;48.810;8.818;2022-08-24T08:29:06;24.00;52.00
50548;DHT22;38013;48.810;8.818;2022-08-24T08:31:36;24.10;52.10
50548;DHT22;38013;48.810;8.818;2022-08-24T08:34:03;24.30;51.90
50548;DHT22;38013;48.810;8.818;2022-08-24T08:36:29;24.40;51.50
50548;DHT22;38013;48.810;8.818;2022-08-24T08:38:56;24.50;51.10
50548;DHT22;38013;48.810;8.818;2022-08-24T08:45:00;24.90;50.00
50548;DHT22;38013;48.810;8.818;2022-08-24T08:53:57;25.50;48.00
50548;DHT22;38013;48.810;8.818;2022-08-24T08:56:41;25.70;46.60
50548;DHT22;38013;48.810;8.818;2022-08-24T09:02:47;26.00;45.10
50548;DHT22;38013;48.810;8.818;2022-08-24T09:05:46;26.20;44.50
50548;DHT22;38013;48.810;8.818;2022-08-24T09:08:51;26.40;44.40
50548;DHT22;38013;48.810;8.818;2022-08-24T09:12:06;26.60;44.60
50548;DHT22;38013;48.810;8.818;2022-08-24T09:14:54;26.80;44.20
50548;DHT22;38013;48.810;8.818;2022-08-24T09:20:58;27.20;43.30
50548;DHT22;38013;48.810;8.818;2022-08-24T09:26:50;27.50;42.70
50548;DHT22;38013;48.810;8.818;2022-08-24T09:30:06;27.60;42.20
50548;DHT22;38013;48.810;8.818;2022-08-24T09:38:57;28.10;41.50
50548;DHT22;38013;48.810;8.818;2022-08-24T09:41:50;28.20;41.30
50548;DHT22;38013;48.810;8.818;2022-08-24T09:44:58;28.30;40.30
50548;DHT22;38013;48.810;8.818;2022-08-24T09:47:59;28.50;40.20
50548;DHT22;38013;48.810;8.818;2022-08-24T09:57:19;29.10;38.70
50548;DHT22;38013;48.810;8.818;2022-08-24T10:00:16;29.30;38.20
50548;DHT22;38013;48.810;8.818;2022-08-24T10:12:06;30.00;37.90
50548;DHT22;38013;48.810;8.818;2022-08-24T10:17:38;30.50;36.50
50548;DHT22;38013;48.810;8.818;2022-08-24T10:20:20;30.60;36.60
50548;DHT22;38013;48.810;8.818;2022-08-24T10:23:09;30.80;36.40
50548;DHT22;38013;48.810;8.818;2022-08-24T10:26:02;31.00;35.30
50548;DHT22;38013;48.810;8.818;2022-08-24T10:31:39;31.40;35.30
50548;DHT22;38013;48.810;8.818;2022-08-24T10:34:33;31.60;34.70
50548;DHT22;38013;48.810;8.818;2022-08-24T10:47:24;32.50;35.60
50548;DHT22;38013;48.810;8.818;2022-08-24T10:53:37;32.90;33.50
50548;DHT22;38013;48.810;8.818;2022-08-24T10:56:07;33.10;32.80
50548;DHT22;38013;48.810;8.818;2022-08-24T10:58:49;33.20;32.70
50548;DHT22;38013;48.810;8.818;2022-08-24T11:01:24;33.30;32.60
50548;DHT22;38013;48.810;8.818;2022-08-24T11:06:29;33.50;32.40
50548;DHT22;38013;48.810;8.818;2022-08-24T11:09:05;33.60;32.60
50548;DHT22;38013;48.810;8.818;2022-08-24T11:11:39;33.70;32.50
50548;DHT22;38013;48.810;8.818;2022-08-24T11:16:49;34.10;32.70
50548;DHT22;38013;48.810;8.818;2022-08-24T11:21:52;34.30;32.50
50548;DHT22;38013;48.810;8.818;2022-08-24T11:24:40;34.50;32.50
50548;DHT22;38013;48.810;8.818;2022-08-24T11:27:29;34.60;32.40
50548;DHT22;38013;48.810;8.818;2022-08-24T11:30:24;34.80;32.60
50548;DHT22;38013;48.810;8.818;2022-08-24T11:32:53;35.00;32.30
50548;DHT22;38013;48.810;8.818;2022-08-24T11:35:37;35.10;32.10
50548;DHT22;38013;48.810;8.818;2022-08-24T11:40:54;35.40;30.90
50548;DHT22;38013;48.810;8.818;2022-08-24T11:47:00;35.50;31.30
50548;DHT22;38013;48.810;8.818;2022-08-24T11:49:43;35.60;31.10
50548;DHT22;38013;48.810;8.818;2022-08-24T11:58:11;35.90;30.60
50548;DHT22;38013;48.810;8.818;2022-08-24T12:00:55;36.10;30.40
50548;DHT22;38013;48.810;8.818;2022-08-24T12:09:12;36.50;29.80
50548;DHT22;38013;48.810;8.818;2022-08-24T12:14:51;36.70;30.40
50548;DHT22;38013;48.810;8.818;2022-08-24T12:19:58;36.90;29.90
50548;DHT22;38013;48.810;8.818;2022-08-24T12:22:27;37.00;29.50
50548;DHT22;38013;48.810;8.818;2022-08-24T12:24:56;37.10;29.60
50548;DHT22;38013;48.810;8.818;2022-08-24T12:27:33;37.20;29.00
50548;DHT22;38013;48.810;8.818;2022-08-24T12:32:57;37.20;29.00
50548;DHT22;38013;48.810;8.818;2022-08-24T12:35:31;37.20;28.80
50548;DHT22;38013;48.810;8.818;2022-08-24T12:41:07;37.40;28.80
50548;DHT22;38013;48.810;8.818;2022-08-24T12:43:48;37.50;28.70
50548;DHT22;38013;48.810;8.818;2022-08-24T12:46:21;37.60;28.50
50548;DHT22;38013;48.810;8.818;2022-08-24T12:48:59;37.70;28.00
50548;DHT22;38013;48.810;8.818;2022-08-24T12:52:02;37.80;27.50
50548;DHT22;38013;48.810;8.818;2022-08-24T12:57:44;38.00;27.80
50548;DHT22;38013;48.810;8.818;2022-08-24T13:00:23;37.90;27.90
50548;DHT22;38013;48.810;8.818;2022-08-24T13:03:00;38.00;27.80
50548;DHT22;38013;48.810;8.818;2022-08-24T13:05:45;38.00;27.70
50548;DHT22;38013;48.810;8.818;2022-08-24T13:08:19;38.10;28.00
50548;DHT22;38013;48.810;8.818;2022-08-24T13:10:53;38.10;28.00
50548;DHT22;38013;48.810;8.818;2022-08-24T13:16:46;38.30;28.20
50548;DHT22;38013;48.810;8.818;2022-08-24T13:21:55;38.70;27.80
50548;DHT22;38013;48.810;8.818;2022-08-24T13:24:43;38.80;27.60
50548;DHT22;38013;48.810;8.818;2022-08-24T13:29:41;39.00;27.10
50548;DHT22;38013;48.810;8.818;2022-08-24T13:40:58;39.00;27.00
50548;DHT22;38013;48.810;8.818;2022-08-24T13:43:39;39.10;26.70
50548;DHT22;38013;48.810;8.818;2022-08-24T13:48:57;39.10;26.50
50548;DHT22;38013;48.810;8.818;2022-08-24T13:55:08;39.00;26.50
50548;DHT22;38013;48.810;8.818;2022-08-24T13:57:51;39.00;26.50
50548;DHT22;38013;48.810;8.818;2022-08-24T14:00:44;39.10;26.10
50548;DHT22;38013;48.810;8.818;2022-08-24T14:03:25;39.10;26.30
50548;DHT22;38013;48.810;8.818;2022-08-24T14:06:27;39.10;26.10
50548;DHT22;38013;48.810;8.818;2022-08-24T14:11:57;39.00;26.00
50548;DHT22;38013;48.810;8.818;2022-08-24T14:21:00;38.90;25.50
50548;DHT22;38013;48.810;8.818;2022-08-24T14:23:50;38.90;26.10
50548;DHT22;38013;48.810;8.818;2022-08-24T14:43:25;38.80;26.60
50548;DHT22;38013;48.810;8.818;2022-08-24T14:46:21;38.80;26.80
50548;DHT22;38013;48.810;8.818;2022-08-24T14:49:10;39.00;27.00
50548;DHT22;38013;48.810;8.818;2022-08-24T15:04:29;39.70;26.40
50548;DHT22;38013;48.810;8.818;2022-08-24T15:07:39;40.00;26.00
50548;DHT22;38013;48.810;8.818;2022-08-24T15:10:13;40.20;26.10
50548;DHT22;38013;48.810;8.818;2022-08-24T15:15:32;40.50;25.30
50548;DHT22;38013;48.810;8.818;2022-08-24T15:18:04;40.60;25.10
50548;DHT22;38013;48.810;8.818;2022-08-24T15:21:11;40.70;25.20
50548;DHT22;38013;48.810;8.818;2022-08-24T15:24:02;40.80;25.40
50548;DHT22;38013;48.810;8.818;2022-08-24T15:27:00;40.90;25.30
50548;DHT22;38013;48.810;8.818;2022-08-24T15:29:33;41.10;25.40
50548;DHT22;38013;48.810;8.818;2022-08-24T15:32:08;41.10;25.50
50548;DHT22;38013;48.810;8.818;2022-08-24T15:34:46;41.30;25.50
50548;DHT22;38013;48.810;8.818;2022-08-24T15:37:32;41.50;25.30
50548;DHT22;38013;48.810;8.818;2022-08-24T15:40:00;41.60;25.30
50548;DHT22;38013;48.810;8.818;2022-08-24T15:42:31;41.70;25.30
50548;DHT22;38013;48.810;8.818;2022-08-24T15:45:02;41.80;25.30
50548;DHT22;38013;48.810;8.818;2022-08-24T15:47:31;41.90;25.00
50548;DHT22;38013;48.810;8.818;2022-08-24T15:50:03;41.90;24.90
50548;DHT22;38013;48.810;8.818;2022-08-24T15:52:45;41.90;24.80
50548;DHT22;38013;48.810;8.818;2022-08-24T15:55:38;41.90;24.70
50548;DHT22;38013;48.810;8.818;2022-08-24T15:58:35;42.00;24.90
50548;DHT22;38013;48.810;8.818;2022-08-24T16:03:56;42.10;24.70
50548;DHT22;38013;48.810;8.818;2022-08-24T16:11:47;42.20;24.90
50548;DHT22;38013;48.810;8.818;2022-08-24T16:17:25;42.20;24.80
50548;DHT22;38013;48.810;8.818;2022-08-24T16:19:57;42.10;25.10
50548;DHT22;38013;48.810;8.818;2022-08-24T16:22:37;42.20;25.00
50548;DHT22;38013;48.810;8.818;2022-08-24T16:33:07;41.70;25.40
50548;DHT22;38013;48.810;8.818;2022-08-24T16:35:33;41.60;25.60
50548;DHT22;38013;48.810;8.818;2022-08-24T16:37:59;41.50;25.70
50548;DHT22;38013;48.810;8.818;2022-08-24T16:40:26;41.30;25.80
50548;DHT22;38013;48.810;8.818;2022-08-24T16:42:52;41.10;25.70
50548;DHT22;38013;48.810;8.818;2022-08-24T16:45:20;40.90;25.90
50548;DHT22;38013;48.810;8.818;2022-08-24T16:47:47;40.60;25.80
50548;DHT22;38013;48.810;8.818;2022-08-24T16:50:15;40.40;25.90
50548;DHT22;38013;48.810;8.818;2022-08-24T16:52:42;40.10;26.00
50548;DHT22;38013;48.810;8.818;2022-08-24T16:55:08;39.70;26.20
50548;DHT22;38013;48.810;8.818;2022-08-24T16:57:34;39.40;26.50
50548;DHT22;38013;48.810;8.818;2022-08-24T17:00:05;39.10;26.70
50548;DHT22;38013;48.810;8.818;2022-08-24T17:02:32;38.90;27.20
50548;DHT22;38013;48.810;8.818;2022-08-24T17:04:58;38.60;27.50
50548;DHT22;38013;48.810;8.818;2022-08-24T17:07:27;38.40;27.70
50548;DHT22;38013;48.810;8.818;2022-08-24T17:09:55;38.20;28.00
50548;DHT22;38013;48.810;8.818;2022-08-24T17:12:22;38.00;28.10
50548;DHT22;38013;48.810;8.818;2022-08-24T17:14:48;37.80;28.20
50548;DHT22;38013;48.810;8.818;2022-08-24T17:17:17;37.70;28.50
50548;DHT22;38013;48.810;8.818;2022-08-24T17:19:47;37.50;28.80
50548;DHT22;38013;48.810;8.818;2022-08-24T17:22:14;37.20;28.90
50548;DHT22;38013;48.810;8.818;2022-08-24T17:24:40;37.00;29.20
50548;DHT22;38013;48.810;8.818;2022-08-24T17:27:05;36.70;29.40
50548;DHT22;38013;48.810;8.818;2022-08-24T17:29:31;36.40;29.60
50548;DHT22;38013;48.810;8.818;2022-08-24T17:31:57;36.00;29.80
50548;DHT22;38013;48.810;8.818;2022-08-24T17:34:25;35.70;30.00
50548;DHT22;38013;48.810;8.818;2022-08-24T17:36:53;35.30;30.50
50548;DHT22;38013;48.810;8.818;2022-08-24T17:39:20;35.00;30.70
50548;DHT22;38013;48.810;8.818;2022-08-24T17:41:54;34.70;31.10
50548;DHT22;38013;48.810;8.818;2022-08-24T17:44:23;34.40;30.60
50548;DHT22;38013;48.810;8.818;2022-08-24T17:46:53;34.10;31.50
50548;DHT22;38013;48.810;8.818;2022-08-24T17:49:22;33.70;32.00
50548;DHT22;38013;48.810;8.818;2022-08-24T17:51:48;33.50;32.40
50548;DHT22;38013;48.810;8.818;2022-08-24T17:54:15;33.20;32.70
50548;DHT22;38013;48.810;8.818;2022-08-24T17:56:42;33.00;33.10
50548;DHT22;38013;48.810;8.818;2022-08-24T17:59:11;32.70;33.40
50548;DHT22;38013;48.810;8.818;2022-08-24T18:01:45;32.50;33.60
50548;DHT22;38013;48.810;8.818;2022-08-24T18:04:11;32.30;33.90
50548;DHT22;38013;48.810;8.818;2022-08-24T18:06:37;32.10;34.20
50548;DHT22;38013;48.810;8.818;2022-08-24T18:09:06;31.90;34.50
50548;DHT22;38013;48.810;8.818;2022-08-24T18:11:33;31.70;34.80
50548;DHT22;38013;48.810;8.818;2022-08-24T18:13:59;31.50;34.80
50548;DHT22;38013;48.810;8.818;2022-08-24T18:16:26;31.40;35.20
50548;DHT22;38013;48.810;8.818;2022-08-24T18:18:53;31.20;35.40
50548;DHT22;38013;48.810;8.818;2022-08-24T18:21:19;31.10;35.50
50548;DHT22;38013;48.810;8.818;2022-08-24T18:23:46;31.00;35.90
50548;DHT22;38013;48.810;8.818;2022-08-24T18:26:18;30.80;36.00
50548;DHT22;38013;48.810;8.818;2022-08-24T18:28:47;30.70;36.60
50548;DHT22;38013;48.810;8.818;2022-08-24T18:31:13;30.50;36.60
50548;DHT22;38013;48.810;8.818;2022-08-24T18:33:39;30.40;36.80
50548;DHT22;38013;48.810;8.818;2022-08-24T18:36:06;30.20;37.00
50548;DHT22;38013;48.810;8.818;2022-08-24T18:38:31;30.10;37.20
50548;DHT22;38013;48.810;8.818;2022-08-24T18:40:59;30.00;37.50
50548;DHT22;38013;48.810;8.818;2022-08-24T18:43:26;29.80;37.60
50548;DHT22;38013;48.810;8.818;2022-08-24T18:45:53;29.70;37.90
50548;DHT22;38013;48.810;8.818;2022-08-24T18:48:18;29.60;38.20
50548;DHT22;38013;48.810;8.818;2022-08-24T18:50:45;29.50;38.40
50548;DHT22;38013;48.810;8.818;2022-08-24T18:53:13;29.40;38.70
50548;DHT22;38013;48.810;8.818;2022-08-24T18:55:39;29.30;38.70
50548;DHT22;38013;48.810;8.818;2022-08-24T18:58:07;29.20;39.20
50548;DHT22;38013;48.810;8.818;2022-08-24T19:00:33;29.10;39.40
50548;DHT22;38013;48.810;8.818;2022-08-24T19:03:01;29.00;39.30
50548;DHT22;38013;48.810;8.818;2022-08-24T19:05:29;28.90;39.60
50548;DHT22;38013;48.810;8.818;2022-08-24T19:07:55;28.80;39.50
50548;DHT22;38013;48.810;8.818;2022-08-24T19:10:25;28.70;39.60
50548;DHT22;38013;48.810;8.818;2022-08-24T19:12:55;28.70;40.20